sensor_id;sensor_type;location;lat;lon;timestamp;pressure;altitude;pressure_sealevel;temperature;humidity
42859;BME280;28505;56.970;40.998;2023-04-07T00:05:18;101200.09;;;-0.39;100.00
42859;BME280;28505;56.970;40.998;2023-04-07T00:10:39;101201.50;;;-0.43;100.00
42859;BME280;28505;56.970;40.998;2023-04-07T00:16:01;101203.53;;;-0.45;100.00
42859;BME280;28505;56.970;40.998;2023-04-07T00:21:25;101196.88;;;-0.56;100.00
42859;BME280;28505;56.970;40.998;2023-04-07T00:26:48;101196.44;;;-0.60;100.00
42859;BME280;28505;56.970;40.998;2023-04-07T00:32:10;101212.41;;;-0.53;100.00
42859;BME280;28505;56.970;40.998;2023-04-07T00:37:32;101196.00;;;-0.63;100.00
42859;BME280;28505;56.970;40.998;2023-04-07T00:42:54;101202.50;;;-0.66;100.00
42859;BME280;28505;56.970;40.998;2023-04-07T00:48:17;101187.22;;;-0.85;100.00
42859;BME280;28505;56.970;40.998;2023-04-07T00:53:40;101214.75;;;-0.65;100.00
42859;BME280;28505;56.970;40.998;2023-04-07T00:59:04;101205.44;;;-0.76;100.00
42859;BME280;28505;56.970;40.998;2023-04-07T01:10:29;101216.63;;;-0.80;100.00
42859;BME280;28505;56.970;40.998;2023-04-07T01:16:04;101209.16;;;-0.91;100.00
42859;BME280;28505;56.970;40.998;2023-04-07T01:21:34;101205.00;;;-1.01;100.00
42859;BME280;28505;56.970;40.998;2023-04-07T01:27:09;101211.91;;;-1.00;100.00
42859;BME280;28505;56.970;40.998;2023-04-07T01:32:36;101235.00;;;-0.93;100.00
42859;BME280;28505;56.970;40.998;2023-04-07T01:37:59;101231.09;;;-0.98;100.00
42859;BME280;28505;56.970;40.998;2023-04-07T01:43:23;101234.47;;;-1.04;100.00
42859;BME280;28505;56.970;40.998;2023-04-07T01:48:47;101228.53;;;-1.06;100.00
42859;BME280;28505;56.970;40.998;2023-04-07T01:54:10;101211.47;;;-1.18;100.00
42859;BME280;28505;56.970;40.998;2023-04-07T01:59:33;101232.19;;;-1.07;100.00
42859;BME280;28505;56.970;40.998;2023-04-07T02:05:03;101225.38;;;-1.16;100.00
42859;BME280;28505;56.970;40.998;2023-04-07T02:10:34;101239.69;;;-1.10;100.00
42859;BME280;28505;56.970;40.998;2023-04-07T02:15:57;101226.53;;;-1.19;100.00
42859;BME280;28505;56.970;40.998;2023-04-07T02:21:20;101238.16;;;-1.20;100.00
42859;BME280;28505;56.970;40.998;2023-04-07T02:26:43;101247.09;;;-1.21;100.00
42859;BME280;28505;56.970;40.998;2023-04-07T02:32:05;101225.69;;;-1.40;100.00
42859;BME280;28505;56.970;40.998;2023-04-07T02:37:27;101201.03;;;-1.56;100.00
42859;BME280;28505;56.970;40.998;2023-04-07T02:42:50;101221.13;;;-1.47;100.00
42859;BME280;28505;56.970;40.998;2023-04-07T02:48:16;101221.84;;;-1.53;100.00
42859;BME280;28505;56.970;40.998;2023-04-07T02:53:40;101254.66;;;-1.32;100.00
42859;BME280;28505;56.970;40.998;2023-04-07T02:59:03;101226.75;;;-1.50;100.00
42859;BME280;28505;56.970;40.998;2023-04-07T03:04:35;101222.47;;;-1.51;100.00
42859;BME280;28505;56.970;40.998;2023-04-07T03:09:58;101229.94;;;-1.39;100.00
42859;BME280;28505;56.970;40.998;2023-04-07T03:15:26;101234.97;;;-1.30;100.00
42859;BME280;28505;56.970;40.998;2023-04-07T03:20:53;101233.13;;;-1.29;100.00
42859;BME280;28505;56.970;40.998;2023-04-07T03:26:33;101263.69;;;-1.12;100.00
42859;BME280;28505;56.970;40.998;2023-04-07T03:32:03;101275.06;;;-0.97;100.00
42859;BME280;28505;56.970;40.998;2023-04-07T03:37:26;101287.75;;;-0.92;100.00
42859;BME280;28505;56.970;40.998;2023-04-07T03:42:48;101295.22;;;-0.81;100.00
42859;BME280;28505;56.970;40.998;2023-04-07T03:48:11;101297.38;;;-0.69;100.00
42859;BME280;28505;56.970;40.998;2023-04-07T03:53:45;101287.16;;;-0.58;100.00
42859;BME280;28505;56.970;40.998;2023-04-07T05:51:32;101356.28;;;6.29;72.11
42859;BME280;28505;56.970;40.998;2023-04-07T05:57:01;101358.28;;;6.57;70.89
42859;BME280;28505;56.970;40.998;2023-04-07T06:02:25;101351.97;;;6.63;67.17
42859;BME280;28505;56.970;40.998;2023-04-07T06:07:49;101370.28;;;7.01;68.96
42859;BME280;28505;56.970;40.998;2023-04-07T06:13:12;101387.25;;;7.42;67.18
42859;BME280;28505;56.970;40.998;2023-04-07T06:18:35;101383.47;;;7.55;65.51
42859;BME280;28505;56.970;40.998;2023-04-07T06:23:59;101356.06;;;7.53;62.32
42859;BME280;28505;56.970;40.998;2023-04-07T06:29:24;101377.09;;;7.85;63.54
42859;BME280;28505;56.970;40.998;2023-04-07T06:34:48;101376.66;;;8.21;64.28
42859;BME280;28505;56.970;40.998;2023-04-07T06:40:11;101378.00;;;8.53;62.16
42859;BME280;28505;56.970;40.998;2023-04-07T06:45:33;101384.94;;;8.20;58.58
42859;BME280;28505;56.970;40.998;2023-04-07T06:50:55;101387.16;;;7.94;56.84
42859;BME280;28505;56.970;40.998;2023-04-07T06:56:17;101376.13;;;8.53;59.51
42859;BME280;28505;56.970;40.998;2023-04-07T07:01:39;101376.16;;;8.92;59.71
42859;BME280;28505;56.970;40.998;2023-04-07T07:07:02;101372.94;;;8.90;56.75
42859;BME280;28505;56.970;40.998;2023-04-07T07:12:25;101358.69;;;8.89;57.47
42859;BME280;28505;56.970;40.998;2023-04-07T07:17:46;101374.50;;;9.08;55.07
42859;BME280;28505;56.970;40.998;2023-04-07T07:23:09;101378.25;;;9.46;58.06
42859;BME280;28505;56.970;40.998;2023-04-07T07:28:30;101379.78;;;9.64;54.12
42859;BME280;28505;56.970;40.998;2023-04-07T07:33:54;101358.94;;;9.54;56.36
42859;BME280;28505;56.970;40.998;2023-04-07T07:39:17;101362.75;;;9.58;55.98
42859;BME280;28505;56.970;40.998;2023-04-07T07:44:39;101367.78;;;9.27;53.48
42859;BME280;28505;56.970;40.998;2023-04-07T07:50:03;101355.91;;;9.45;55.48
42859;BME280;28505;56.970;40.998;2023-04-07T07:55:26;101342.38;;;9.67;55.17
42859;BME280;28505;56.970;40.998;2023-04-07T08:00:48;101359.81;;;9.59;52.84
42859;BME280;28505;56.970;40.998;2023-04-07T08:06:11;101341.88;;;9.70;53.25
42859;BME280;28505;56.970;40.998;2023-04-07T08:11:33;101330.41;;;9.53;52.54
42859;BME280;28505;56.970;40.998;2023-04-07T08:16:56;101340.84;;;9.71;51.71
42859;BME280;28505;56.970;40.998;2023-04-07T08:22:18;101345.44;;;9.76;52.17
42859;BME280;28505;56.970;40.998;2023-04-07T08:27:44;101348.75;;;9.56;51.36
42859;BME280;28505;56.970;40.998;2023-04-07T08:33:09;101334.56;;;9.38;49.79
42859;BME280;28505;56.970;40.998;2023-04-07T08:38:32;101335.75;;;9.26;49.08
42859;BME280;28505;56.970;40.998;2023-04-07T08:43:56;101345.06;;;9.67;50.93
42859;BME280;28505;56.970;40.998;2023-04-07T08:49:18;101359.69;;;9.71;49.15
42859;BME280;28505;56.970;40.998;2023-04-07T08:54:42;101351.94;;;9.53;50.33
42859;BME280;28505;56.970;40.998;2023-04-07T09:00:07;101360.06;;;9.58;48.91
42859;BME280;28505;56.970;40.998;2023-04-07T09:05:30;101359.91;;;9.43;47.43
42859;BME280;28505;56.970;40.998;2023-04-07T09:10:55;101356.19;;;9.27;49.97
42859;BME280;28505;56.970;40.998;2023-04-07T09:16:17;101321.91;;;9.17;48.66
42859;BME280;28505;56.970;40.998;2023-04-07T09:21:50;101349.13;;;9.43;50.38
42859;BME280;28505;56.970;40.998;2023-04-07T09:27:19;101337.81;;;9.68;50.23
42859;BME280;28505;56.970;40.998;2023-04-07T09:32:41;101348.47;;;9.57;45.52
42859;BME280;28505;56.970;40.998;2023-04-07T09:38:06;101349.16;;;9.48;46.06
42859;BME280;28505;56.970;40.998;2023-04-07T09:43:28;101339.25;;;9.26;46.76
42859;BME280;28505;56.970;40.998;2023-04-07T09:49:03;101338.78;;;9.34;46.22
42859;BME280;28505;56.970;40.998;2023-04-07T09:59:57;101342.97;;;9.25;45.22
42859;BME280;28505;56.970;40.998;2023-04-07T10:05:21;101327.97;;;9.29;45.84
42859;BME280;28505;56.970;40.998;2023-04-07T10:10:43;101318.44;;;9.22;44.90
42859;BME280;28505;56.970;40.998;2023-04-07T10:16:06;101328.91;;;9.18;45.18
42859;BME280;28505;56.970;40.998;2023-04-07T10:21:29;101327.41;;;9.27;45.23
42859;BME280;28505;56.970;40.998;2023-04-07T10:26:55;101328.03;;;9.34;45.69
42859;BME280;28505;56.970;40.998;2023-04-07T10:32:18;101290.63;;;9.11;43.73
42859;BME280;28505;56.970;40.998;2023-04-07T10:38:09;101328.03;;;9.34;45.46
42859;BME280;28505;56.970;40.998;2023-04-07T10:43:39;101304.63;;;9.35;45.38
42859;BME280;28505;56.970;40.998;2023-04-07T10:49:08;101281.63;;;9.22;44.90
42859;BME280;28505;56.970;40.998;2023-04-07T10:54:32;101300.50;;;9.27;44.64
42859;BME280;28505;56.970;40.998;2023-04-07T11:05:32;101290.53;;;9.28;44.02
42859;BME280;28505;56.970;40.998;2023-04-07T11:10:54;101293.53;;;9.31;43.56
42859;BME280;28505;56.970;40.998;2023-04-07T11:16:18;101324.00;;;9.59;43.47
42859;BME280;28505;56.970;40.998;2023-04-07T11:21:40;101316.88;;;9.48;41.75
42859;BME280;28505;56.970;40.998;2023-04-07T11:27:11;101321.63;;;9.41;41.81
42859;BME280;28505;56.970;40.998;2023-04-07T11:32:33;101315.03;;;9.26;41.05
42859;BME280;28505;56.970;40.998;2023-04-07T11:37:59;101327.28;;;9.39;41.59
42859;BME280;28505;56.970;40.998;2023-04-07T11:43:24;101280.91;;;9.32;42.98
42859;BME280;28505;56.970;40.998;2023-04-07T11:48:47;101308.84;;;9.53;43.46
42859;BME280;28505;56.970;40.998;2023-04-07T11:54:10;101305.66;;;9.56;42.97
42859;BME280;28505;56.970;40.998;2023-04-07T11:59:32;101287.81;;;9.50;40.99
42859;BME280;28505;56.970;40.998;2023-04-07T12:04:55;101302.28;;;9.44;40.42
42859;BME280;28505;56.970;40.998;2023-04-07T12:10:22;101305.59;;;9.51;40.97
42859;BME280;28505;56.970;40.998;2023-04-07T12:15:46;101285.00;;;9.61;37.19
42859;BME280;28505;56.970;40.998;2023-04-07T12:21:08;101287.31;;;9.53;40.67
42859;BME280;28505;56.970;40.998;2023-04-07T12:26:30;101284.56;;;9.48;40.87
42859;BME280;28505;56.970;40.998;2023-04-07T12:31:52;101277.25;;;9.43;40.50
42859;BME280;28505;56.970;40.998;2023-04-07T12:37:14;101281.13;;;9.52;38.99
42859;BME280;28505;56.970;40.998;2023-04-07T12:42:36;101261.81;;;9.33;40.87
42859;BME280;28505;56.970;40.998;2023-04-07T12:47:58;101267.91;;;9.51;39.39
42859;BME280;28505;56.970;40.998;2023-04-07T12:53:21;101268.91;;;9.45;40.18
42859;BME280;28505;56.970;40.998;2023-04-07T12:58:43;101263.22;;;9.41;40.28
42859;BME280;28505;56.970;40.998;2023-04-07T13:04:06;101265.13;;;9.41;39.87
42859;BME280;28505;56.970;40.998;2023-04-07T13:09:27;101286.16;;;9.44;39.28
42859;BME280;28505;56.970;40.998;2023-04-07T13:14:49;101259.06;;;9.28;38.95
42859;BME280;28505;56.970;40.998;2023-04-07T13:20:20;101241.00;;;9.02;40.05
42859;BME280;28505;56.970;40.998;2023-04-07T13:25:42;101273.78;;;9.21;40.27
42859;BME280;28505;56.970;40.998;2023-04-07T13:31:04;101283.63;;;9.32;41.03
42859;BME280;28505;56.970;40.998;2023-04-07T13:36:27;101265.03;;;9.08;40.05
42859;BME280;28505;56.970;40.998;2023-04-07T13:41:49;101265.66;;;8.94;41.32
42859;BME280;28505;56.970;40.998;2023-04-07T13:47:11;101271.16;;;9.04;39.42
42859;BME280;28505;56.970;40.998;2023-04-07T13:52:35;101267.09;;;9.01;40.96
42859;BME280;28505;56.970;40.998;2023-04-07T13:57:57;101260.03;;;8.95;39.48
42859;BME280;28505;56.970;40.998;2023-04-07T14:03:19;101265.47;;;9.00;38.97
42859;BME280;28505;56.970;40.998;2023-04-07T14:08:42;101270.28;;;8.98;39.60
42859;BME280;28505;56.970;40.998;2023-04-07T14:14:04;101267.06;;;8.96;39.96
42859;BME280;28505;56.970;40.998;2023-04-07T14:19:27;101261.84;;;8.89;40.14
42859;BME280;28505;56.970;40.998;2023-04-07T14:24:49;101263.84;;;8.77;40.66
42859;BME280;28505;56.970;40.998;2023-04-07T14:30:11;101260.25;;;8.72;41.10
42859;BME280;28505;56.970;40.998;2023-04-07T14:35:35;101268.28;;;8.66;41.24
42859;BME280;28505;56.970;40.998;2023-04-07T14:40:58;101273.81;;;8.60;41.79
42859;BME280;28505;56.970;40.998;2023-04-07T14:46:33;101263.41;;;8.47;41.69
42859;BME280;28505;56.970;40.998;2023-04-07T14:51:55;101222.00;;;8.09;41.60
42859;BME280;28505;56.970;40.998;2023-04-07T14:57:18;101254.13;;;8.20;41.52
42859;BME280;28505;56.970;40.998;2023-04-07T15:02:40;101238.34;;;7.90;41.63
42859;BME280;28505;56.970;40.998;2023-04-07T15:08:04;101233.13;;;7.67;41.69
42859;BME280;28505;56.970;40.998;2023-04-07T15:19:32;101257.75;;;7.47;42.45
42859;BME280;28505;56.970;40.998;2023-04-07T15:24:54;101272.06;;;7.24;42.94
42859;BME280;28505;56.970;40.998;2023-04-07T15:30:16;101261.28;;;6.95;44.02
42859;BME280;28505;56.970;40.998;2023-04-07T15:35:42;101278.91;;;6.79;44.17
42859;BME280;28505;56.970;40.998;2023-04-07T15:41:05;101276.38;;;6.49;44.85
42859;BME280;28505;56.970;40.998;2023-04-07T15:46:27;101288.63;;;6.33;44.85
42859;BME280;28505;56.970;40.998;2023-04-07T15:51:49;101295.00;;;6.09;45.61
42859;BME280;28505;56.970;40.998;2023-04-07T15:57:11;101296.06;;;5.78;46.43
42859;BME280;28505;56.970;40.998;2023-04-07T16:02:34;101291.53;;;5.48;46.98
42859;BME280;28505;56.970;40.998;2023-04-07T16:07:56;101308.66;;;5.29;47.37
42859;BME280;28505;56.970;40.998;2023-04-07T16:13:18;101301.25;;;4.94;47.84
42859;BME280;28505;56.970;40.998;2023-04-07T16:18:40;101310.31;;;4.75;47.96
42859;BME280;28505;56.970;40.998;2023-04-07T16:24:02;101306.47;;;4.45;48.35
42859;BME280;28505;56.970;40.998;2023-04-07T16:29:24;101331.06;;;4.29;48.92
42859;BME280;28505;56.970;40.998;2023-04-07T16:34:46;101338.97;;;4.11;49.29
42859;BME280;28505;56.970;40.998;2023-04-07T16:40:10;101341.16;;;3.89;49.80
42859;BME280;28505;56.970;40.998;2023-04-07T16:45:32;101344.16;;;3.74;50.07
42859;BME280;28505;56.970;40.998;2023-04-07T16:50:54;101344.44;;;3.52;50.46
42859;BME280;28505;56.970;40.998;2023-04-07T16:56:21;101337.59;;;3.25;50.89
42859;BME280;28505;56.970;40.998;2023-04-07T17:01:43;101359.34;;;3.22;51.19
42859;BME280;28505;56.970;40.998;2023-04-07T17:07:07;101358.97;;;3.05;51.80
42859;BME280;28505;56.970;40.998;2023-04-07T17:12:29;101331.81;;;2.70;51.89
42859;BME280;28505;56.970;40.998;2023-04-07T17:17:51;101335.69;;;2.61;51.97
42859;BME280;28505;56.970;40.998;2023-04-07T17:23:13;101359.88;;;2.59;52.78
42859;BME280;28505;56.970;40.998;2023-04-07T17:28:35;101369.91;;;2.50;53.03
42859;BME280;28505;56.970;40.998;2023-04-07T17:33:58;101372.34;;;2.39;53.41
42859;BME280;28505;56.970;40.998;2023-04-07T17:39:20;101371.94;;;2.22;53.76
42859;BME280;28505;56.970;40.998;2023-04-07T17:44:44;101393.41;;;2.14;54.23
42859;BME280;28505;56.970;40.998;2023-04-07T17:50:07;101384.59;;;1.93;54.65
42859;BME280;28505;56.970;40.998;2023-04-07T17:55:29;101390.50;;;1.88;55.19
42859;BME280;28505;56.970;40.998;2023-04-07T18:00:51;101385.75;;;1.77;55.69
42859;BME280;28505;56.970;40.998;2023-04-07T18:06:17;101400.03;;;1.70;55.92
42859;BME280;28505;56.970;40.998;2023-04-07T18:11:43;101398.13;;;1.57;56.76
42859;BME280;28505;56.970;40.998;2023-04-07T18:17:04;101376.22;;;1.42;57.11
42859;BME280;28505;56.970;40.998;2023-04-07T18:22:27;101398.28;;;1.42;57.44
42859;BME280;28505;56.970;40.998;2023-04-07T18:27:49;101393.34;;;1.32;57.78
42859;BME280;28505;56.970;40.998;2023-04-07T18:33:14;101383.47;;;1.20;57.99
42859;BME280;28505;56.970;40.998;2023-04-07T18:38:36;101377.66;;;1.03;58.63
42859;BME280;28505;56.970;40.998;2023-04-07T18:44:02;101402.03;;;1.13;58.53
42859;BME280;28505;56.970;40.998;2023-04-07T18:49:25;101382.50;;;0.92;59.02
42859;BME280;28505;56.970;40.998;2023-04-07T18:54:49;101386.94;;;0.85;59.09
42859;BME280;28505;56.970;40.998;2023-04-07T19:00:14;101370.94;;;0.72;59.30
42859;BME280;28505;56.970;40.998;2023-04-07T19:05:38;101378.25;;;0.70;60.00
42859;BME280;28505;56.970;40.998;2023-04-07T19:11:06;101378.19;;;0.63;60.43
42859;BME280;28505;56.970;40.998;2023-04-07T19:16:37;101360.72;;;0.47;60.46
42859;BME280;28505;56.970;40.998;2023-04-07T19:22:11;101374.81;;;0.48;60.28
42859;BME280;28505;56.970;40.998;2023-04-07T19:27:34;101392.88;;;0.59;60.46
42859;BME280;28505;56.970;40.998;2023-04-07T19:33:03;101365.34;;;0.39;60.43
42859;BME280;28505;56.970;40.998;2023-04-07T19:38:26;101366.34;;;0.38;60.36
42859;BME280;28505;56.970;40.998;2023-04-07T19:43:49;101363.66;;;0.31;61.03
42859;BME280;28505;56.970;40.998;2023-04-07T19:49:12;101373.81;;;0.28;60.86
42859;BME280;28505;56.970;40.998;2023-04-07T19:54:35;101364.56;;;0.17;61.21
42859;BME280;28505;56.970;40.998;2023-04-07T20:00:00;101371.34;;;0.26;61.39
42859;BME280;28505;56.970;40.998;2023-04-07T20:05:49;101419.34;;;0.53;61.72
42859;BME280;28505;56.970;40.998;2023-04-07T20:11:22;101425.41;;;0.46;62.19
42859;BME280;28505;56.970;40.998;2023-04-07T20:16:48;101390.88;;;0.18;62.20
42859;BME280;28505;56.970;40.998;2023-04-07T20:22:12;101436.78;;;0.40;62.19
42859;BME280;28505;56.970;40.998;2023-04-07T20:27:35;101385.50;;;0.12;62.98
42859;BME280;28505;56.970;40.998;2023-04-07T20:32:58;101434.63;;;0.29;63.17
42859;BME280;28505;56.970;40.998;2023-04-07T20:38:20;101445.22;;;0.29;63.91
42859;BME280;28505;56.970;40.998;2023-04-07T20:43:42;101424.63;;;0.10;64.46
42859;BME280;28505;56.970;40.998;2023-04-07T20:49:05;101433.53;;;0.02;65.48
42859;BME280;28505;56.970;40.998;2023-04-07T20:54:28;101457.53;;;-0.06;66.33
42859;BME280;28505;56.970;40.998;2023-04-07T20:59:51;101438.09;;;-0.28;67.26
42859;BME280;28505;56.970;40.998;2023-04-07T21:05:16;101449.34;;;-0.26;67.83
42859;BME280;28505;56.970;40.998;2023-04-07T21:10:41;101449.97;;;-0.24;67.85
42859;BME280;28505;56.970;40.998;2023-04-07T21:16:04;101453.63;;;-0.25;68.88
42859;BME280;28505;56.970;40.998;2023-04-07T21:21:27;101463.47;;;-0.19;68.60
42859;BME280;28505;56.970;40.998;2023-04-07T21:26:52;101438.81;;;-0.34;69.54
42859;BME280;28505;56.970;40.998;2023-04-07T21:32:15;101445.38;;;-0.30;69.35
42859;BME280;28505;56.970;40.998;2023-04-07T21:37:38;101454.81;;;-0.28;69.21
42859;BME280;28505;56.970;40.998;2023-04-07T21:43:00;101469.59;;;-0.18;70.13
42859;BME280;28505;56.970;40.998;2023-04-07T21:48:25;101442.22;;;-0.40;69.77
42859;BME280;28505;56.970;40.998;2023-04-07T21:53:48;101449.53;;;-0.42;71.13
42859;BME280;28505;56.970;40.998;2023-04-07T21:59:11;101471.88;;;-0.30;71.02
42859;BME280;28505;56.970;40.998;2023-04-07T22:04:34;101469.44;;;-0.32;71.32
42859;BME280;28505;56.970;40.998;2023-04-07T22:09:57;101445.34;;;-0.52;72.50
42859;BME280;28505;56.970;40.998;2023-04-07T22:15:20;101459.84;;;-0.48;73.91
42859;BME280;28505;56.970;40.998;2023-04-07T22:20:43;101443.31;;;-0.64;74.66
42859;BME280;28505;56.970;40.998;2023-04-07T22:26:06;101434.19;;;-0.62;75.73
42859;BME280;28505;56.970;40.998;2023-04-07T22:31:29;101457.94;;;-0.54;75.73
42859;BME280;28505;56.970;40.998;2023-04-07T22:36:51;101459.03;;;-0.48;75.52
42859;BME280;28505;56.970;40.998;2023-04-07T22:42:14;101448.34;;;-0.55;77.02
42859;BME280;28505;56.970;40.998;2023-04-07T22:47:37;101460.56;;;-0.54;78.07
42859;BME280;28505;56.970;40.998;2023-04-07T22:52:59;101459.66;;;-0.61;78.57
42859;BME280;28505;56.970;40.998;2023-04-07T22:58:21;101459.66;;;-0.61;79.43
42859;BME280;28505;56.970;40.998;2023-04-07T23:03:43;101450.53;;;-0.73;79.69
42859;BME280;28505;56.970;40.998;2023-04-07T23:09:06;101458.19;;;-0.63;79.91
42859;BME280;28505;56.970;40.998;2023-04-07T23:14:28;101445.22;;;-0.73;78.67
42859;BME280;28505;56.970;40.998;2023-04-07T23:19:50;101462.38;;;-0.69;78.36
42859;BME280;28505;56.970;40.998;2023-04-07T23:25:12;101438.38;;;-0.82;78.49
42859;BME280;28505;56.970;40.998;2023-04-07T23:30:34;101450.63;;;-0.81;78.70
42859;BME280;28505;56.970;40.998;2023-04-07T23:35:58;101440.47;;;-0.92;78.77
42859;BME280;28505;56.970;40.998;2023-04-07T23:41:21;101454.00;;;-0.87;80.15
42859;BME280;28505;56.970;40.998;2023-04-07T23:46:43;101443.84;;;-0.99;81.93
42859;BME280;28505;56.970;40.998;2023-04-07T23:52:05;101442.56;;;-1.03;82.02
42859;BME280;28505;56.970;40.998;2023-04-07T23:57:28;101454.41;;;-0.99;83.18
